Time;durP1;ratioP1;P1;durP2;ratioP2;P2;SDS_P1;SDS_P2;PMS_P1;PMS_P2;Temp;Humidity;BMP_temperature;BMP_pressure;BME280_temperature;BME280_humidity;BME280_pressure;Samples;Min_cycle;Max_cycle;Signal;HPM_P1;HPM_P2
2022/11/21 00:00:13;;;;;;;4.65;1.95;;;;;;;;;;5009231;28;20045;-78
2022/11/21 00:02:39;;;;;;;7.72;1.63;;;;;;;;;;5008890;28;20527;-77
2022/11/21 00:05:05;;;;;;;6.13;1.27;;;;;;;;;;5009125;28;20176;-76
2022/11/21 00:07:31;;;;;;;7.38;1.60;;;;;;;;;;5008252;28;20406;-76
2022/11/21 00:09:56;;;;;;;8.23;1.60;;;;;;;;;;5010166;28;20025;-76
2022/11/21 00:12:22;;;;;;;7.13;1.95;;;;;;;;;;5007965;28;20076;-76
2022/11/21 00:14:48;;;;;;;10.30;1.30;;;;;;;;;;5007660;28;20570;-76
2022/11/21 00:17:14;;;;;;;6.13;1.30;;;;;;;;;;5011242;28;20387;-76
2022/11/21 00:19:40;;;;;;;6.38;1.40;;;;;;;;;;5001588;28;20029;-76
2022/11/21 00:22:07;;;;;;;8.30;1.33;;;;;;;;;;5012449;28;20188;-76
2022/11/21 00:24:33;;;;;;;6.47;1.45;;;;;;;;;;5006571;28;20574;-76
2022/11/21 00:26:59;;;;;;;10.63;2.22;;;;;;;;;;5011140;28;20084;-76
2022/11/21 00:29:24;;;;;;;9.38;2.22;;;;;;;;;;5010539;28;20034;-76
2022/11/21 00:31:50;;;;;;;6.20;1.48;;;;;;;;;;5004709;28;20037;-77
2022/11/21 00:34:16;;;;;;;6.90;1.67;;;;;;;;;;4984602;28;20029;-75
2022/11/21 00:36:42;;;;;;;8.60;1.98;;;;;;;;;;5009839;28;20030;-76
2022/11/21 00:39:08;;;;;;;9.48;1.75;;;;;;;;;;5000759;28;20488;-76
2022/11/21 00:41:34;;;;;;;11.23;1.65;;;;;;;;;;5009471;28;20400;-76
2022/11/21 00:44:00;;;;;;;8.93;1.45;;;;;;;;;;5010718;28;20100;-76
2022/11/21 00:46:26;;;;;;;4.00;1.38;;;;;;;;;;5003943;28;20046;-76
2022/11/21 00:48:51;;;;;;;6.68;1.50;;;;;;;;;;5009888;28;20377;-76
2022/11/21 00:51:17;;;;;;;9.48;1.80;;;;;;;;;;5008874;28;20034;-77
2022/11/21 00:53:43;;;;;;;14.95;2.50;;;;;;;;;;5009960;28;20482;-76
2022/11/21 00:56:09;;;;;;;5.68;1.17;;;;;;;;;;5004745;28;20048;-76
2022/11/21 00:58:35;;;;;;;10.25;2.00;;;;;;;;;;5007407;28;20053;-76
2022/11/21 01:01:09;;;;;;;10.95;1.77;;;;;;;;;;5002789;28;20033;-76
2022/11/21 01:03:36;;;;;;;4.88;1.25;;;;;;;;;;5004898;28;20034;-76
2022/11/21 01:06:04;;;;;;;7.88;1.60;;;;;;;;;;5007558;28;20399;-76
2022/11/21 01:08:30;;;;;;;6.55;1.45;;;;;;;;;;5007569;28;20041;-76
2022/11/21 01:10:56;;;;;;;8.13;1.92;;;;;;;;;;5006819;28;20061;-76
2022/11/21 01:13:22;;;;;;;7.78;2.33;;;;;;;;;;5006392;28;20125;-77
2022/11/21 01:15:48;;;;;;;9.32;2.80;;;;;;;;;;5007079;28;20025;-77
2022/11/21 01:18:14;;;;;;;9.45;2.33;;;;;;;;;;5006497;28;20081;-77
2022/11/21 01:20:40;;;;;;;7.35;1.95;;;;;;;;;;5007189;28;20030;-76
2022/11/21 01:23:06;;;;;;;13.95;2.42;;;;;;;;;;5008330;28;20685;-77
2022/11/21 01:25:35;;;;;;;6.78;1.85;;;;;;;;;;5006270;28;20030;-76
2022/11/21 01:28:01;;;;;;;6.97;1.30;;;;;;;;;;5003697;28;20092;-76
2022/11/21 01:30:27;;;;;;;9.07;1.40;;;;;;;;;;5010191;28;20030;-77
2022/11/21 01:32:53;;;;;;;7.95;1.65;;;;;;;;;;5007084;28;20046;-76
2022/11/21 01:35:19;;;;;;;9.65;1.83;;;;;;;;;;5007811;28;20048;-76
2022/11/21 01:37:49;;;;;;;6.35;1.08;;;;;;;;;;5006857;28;20057;-76
2022/11/21 01:40:16;;;;;;;9.02;1.63;;;;;;;;;;5005863;28;20038;-76
2022/11/21 01:42:51;;;;;;;4.95;1.50;;;;;;;;;;5008488;28;20013;-76
2022/11/21 01:46:05;;;;;;;7.03;1.65;;;;;;;;;;5004835;28;20084;-76
2022/11/21 01:48:58;;;;;;;8.75;1.15;;;;;;;;;;5000184;28;20092;-76
2022/11/21 01:51:54;;;;;;;9.07;1.70;;;;;;;;;;5008824;28;20104;-76
2022/11/21 01:54:34;;;;;;;3.50;1.00;;;;;;;;;;5009592;28;20247;-76
2022/11/21 01:57:15;;;;;;;9.05;1.77;;;;;;;;;;5009756;28;20511;-77
2022/11/21 02:00:02;;;;;;;6.78;1.75;;;;;;;;;;5010057;28;20046;-76
2022/11/21 02:02:38;;;;;;;12.40;3.40;;;;;;;;;;5009559;28;20034;-76
2022/11/21 02:05:07;;;;;;;7.00;2.10;;;;;;;;;;5008093;28;20044;-76
2022/11/21 02:07:38;;;;;;;3.13;0.90;;;;;;;;;;5009231;28;20208;-76
2022/11/21 02:10:05;;;;;;;4.75;1.50;;;;;;;;;;5008475;28;20499;-76
2022/11/21 02:12:50;;;;;;;4.93;1.33;;;;;;;;;;4990975;28;20076;-77
2022/11/21 02:15:17;;;;;;;6.18;1.10;;;;;;;;;;5010559;28;20034;-77
2022/11/21 02:17:43;;;;;;;8.75;1.60;;;;;;;;;;5009653;28;20041;-76
2022/11/21 02:20:12;;;;;;;8.05;1.20;;;;;;;;;;5009256;28;20038;-77
2022/11/21 02:23:01;;;;;;;5.25;1.60;;;;;;;;;;5010778;28;20136;-77
2022/11/21 02:25:33;;;;;;;8.48;1.70;;;;;;;;;;5008192;28;20056;-75
2022/11/21 02:28:02;;;;;;;6.90;1.40;;;;;;;;;;5007467;28;20092;-76
2022/11/21 02:30:30;;;;;;;10.48;1.77;;;;;;;;;;5010359;28;20145;-76
2022/11/21 02:32:57;;;;;;;4.97;1.52;;;;;;;;;;5009337;28;20061;-76
2022/11/21 02:35:23;;;;;;;5.63;1.23;;;;;;;;;;5009156;28;20084;-76
2022/11/21 02:37:56;;;;;;;9.63;1.58;;;;;;;;;;5009271;28;20022;-76
2022/11/21 02:40:28;;;;;;;7.75;1.63;;;;;;;;;;5009205;28;20116;-77
2022/11/21 02:43:00;;;;;;;7.32;1.40;;;;;;;;;;5008654;28;20045;-76
2022/11/21 02:45:32;;;;;;;15.87;2.13;;;;;;;;;;5008039;28;20034;-76
2022/11/21 02:47:58;;;;;;;4.30;1.20;;;;;;;;;;5008889;28;20045;-76
2022/11/21 02:50:29;;;;;;;5.68;1.50;;;;;;;;;;5008368;28;20391;-75
2022/11/21 02:52:56;;;;;;;6.22;1.20;;;;;;;;;;5008967;28;20196;-76
2022/11/21 02:55:24;;;;;;;5.00;1.48;;;;;;;;;;5008004;28;20026;-76
2022/11/21 02:57:50;;;;;;;14.15;2.08;;;;;;;;;;5008134;28;20321;-76
2022/11/21 03:00:16;;;;;;;14.57;2.33;;;;;;;;;;5008297;28;20041;-76
2022/11/21 03:02:42;;;;;;;12.32;1.63;;;;;;;;;;5008873;28;20168;-76
2022/11/21 03:05:10;;;;;;;6.97;1.50;;;;;;;;;;5008938;28;20112;-75
2022/11/21 03:07:36;;;;;;;27.75;3.00;;;;;;;;;;5008376;28;20547;-76
2022/11/21 03:10:03;;;;;;;18.65;2.90;;;;;;;;;;5008443;28;20309;-75
2022/11/21 03:12:30;;;;;;;11.25;2.40;;;;;;;;;;5006342;28;20041;-75
2022/11/21 03:14:55;;;;;;;16.02;2.97;;;;;;;;;;5007147;28;20037;-76
2022/11/21 03:17:21;;;;;;;18.40;2.63;;;;;;;;;;5007848;28;20221;-76
2022/11/21 03:19:47;;;;;;;8.40;1.90;;;;;;;;;;5008266;28;20029;-76
2022/11/21 03:22:14;;;;;;;14.90;3.05;;;;;;;;;;5008089;28;20209;-76
2022/11/21 03:24:40;;;;;;;8.50;2.05;;;;;;;;;;5008335;28;20091;-76
2022/11/21 03:27:07;;;;;;;8.95;1.80;;;;;;;;;;5008320;28;20044;-76
2022/11/21 03:29:32;;;;;;;12.40;2.55;;;;;;;;;;5009127;28;20049;-76
2022/11/21 03:31:59;;;;;;;11.52;2.42;;;;;;;;;;5007710;28;20033;-77
2022/11/21 03:34:24;;;;;;;11.38;2.83;;;;;;;;;;5005984;28;20069;-75
2022/11/21 03:36:51;;;;;;;18.63;3.40;;;;;;;;;;5007360;28;20089;-76
2022/11/21 03:39:17;;;;;;;15.18;3.90;;;;;;;;;;5008342;28;20033;-76
2022/11/21 03:41:42;;;;;;;10.43;2.70;;;;;;;;;;5007195;28;20048;-76
2022/11/21 03:44:10;;;;;;;18.02;3.03;;;;;;;;;;5007506;28;20546;-76
2022/11/21 03:46:42;;;;;;;12.23;3.15;;;;;;;;;;5008913;28;20063;-76
2022/11/21 03:49:09;;;;;;;14.52;3.25;;;;;;;;;;5007706;28;20068;-76
2022/11/21 03:51:36;;;;;;;22.85;4.68;;;;;;;;;;5007168;28;20423;-76
2022/11/21 03:54:03;;;;;;;19.90;5.05;;;;;;;;;;5008085;28;20863;-76
2022/11/21 03:56:29;;;;;;;7.43;2.13;;;;;;;;;;5007744;28;20064;-76
2022/11/21 03:58:55;;;;;;;12.02;2.47;;;;;;;;;;5006650;28;20038;-75
2022/11/21 04:01:22;;;;;;;10.68;2.30;;;;;;;;;;5008543;28;20068;-76
2022/11/21 04:03:48;;;;;;;7.07;1.98;;;;;;;;;;5007169;28;20037;-76
2022/11/21 04:06:17;;;;;;;6.75;1.88;;;;;;;;;;5008250;28;20026;-75
2022/11/21 04:08:43;;;;;;;7.50;2.00;;;;;;;;;;5008016;28;20034;-76
2022/11/21 04:11:09;;;;;;;8.35;1.75;;;;;;;;;;5008898;28;20022;-76
2022/11/21 04:13:35;;;;;;;8.95;1.98;;;;;;;;;;5008297;28;20041;-76
2022/11/21 04:16:01;;;;;;;7.93;2.13;;;;;;;;;;5007317;28;20096;-76
2022/11/21 04:18:27;;;;;;;10.35;2.55;;;;;;;;;;5007286;28;20025;-76
2022/11/21 04:21:02;;;;;;;10.77;1.88;;;;;;;;;;5007871;28;20842;-75
2022/11/21 04:23:28;;;;;;;7.35;2.00;;;;;;;;;;5003564;28;20136;-76
2022/11/21 04:25:54;;;;;;;10.80;2.42;;;;;;;;;;5017689;28;20499;-76
2022/11/21 04:28:21;;;;;;;15.35;3.05;;;;;;;;;;5007972;28;20140;-76
2022/11/21 04:30:47;;;;;;;9.50;2.95;;;;;;;;;;5009806;28;20045;-76
2022/11/21 04:33:16;;;;;;;15.05;2.67;;;;;;;;;;5011416;28;20033;-76
2022/11/21 04:35:43;;;;;;;28.52;3.97;;;;;;;;;;5011200;28;20168;-76
2022/11/21 04:38:09;;;;;;;26.08;5.28;;;;;;;;;;5010733;28;20036;-75
2022/11/21 04:40:35;;;;;;;9.40;2.70;;;;;;;;;;5010393;28;20048;-75
2022/11/21 04:43:01;;;;;;;8.00;2.42;;;;;;;;;;5009196;28;20045;-76
2022/11/21 04:45:28;;;;;;;7.90;2.47;;;;;;;;;;5011208;28;20519;-77
2022/11/21 04:47:54;;;;;;;8.55;2.15;;;;;;;;;;5012567;28;20049;-77
2022/11/21 04:50:20;;;;;;;13.80;3.40;;;;;;;;;;5014637;28;20013;-75
2022/11/21 04:52:54;;;;;;;14.13;2.85;;;;;;;;;;5012595;28;20030;-76
2022/11/21 04:55:20;;;;;;;;;;;;;;;;;;5014522;28;20391;-75
2022/11/21 04:57:46;;;;;;;20.98;3.55;;;;;;;;;;5014843;28;19921;-76
2022/11/21 05:00:13;;;;;;;27.95;5.78;;;;;;;;;;5012416;28;20113;-75
2022/11/21 05:02:40;;;;;;;16.40;3.22;;;;;;;;;;5014470;28;20021;-75
2022/11/21 05:05:07;;;;;;;10.27;2.72;;;;;;;;;;5015137;28;20105;-76
2022/11/21 05:07:32;;;;;;;10.52;3.33;;;;;;;;;;5015087;28;20033;-75
2022/11/21 05:09:59;;;;;;;18.52;4.18;;;;;;;;;;5014625;28;20038;-76
2022/11/21 05:15:09;;;;;;;14.55;3.67;;;;;;;;;;5012648;28;20167;-77
2022/11/21 05:17:35;;;;;;;9.93;3.72;;;;;;;;;;5014589;28;20093;-76
2022/11/21 05:20:01;;;;;;;9.35;4.13;;;;;;;;;;5014369;28;20034;-76
2022/11/21 05:22:27;;;;;;;25.00;8.88;;;;;;;;;;5013925;28;20504;-76
2022/11/21 05:24:54;;;;;;;29.02;7.13;;;;;;;;;;5012767;28;20061;-76
2022/11/21 05:27:21;;;;;;;24.98;6.05;;;;;;;;;;5012769;28;20088;-75
2022/11/21 05:29:47;;;;;;;15.82;4.65;;;;;;;;;;5014066;28;20046;-76
2022/11/21 05:32:12;;;;;;;17.30;5.35;;;;;;;;;;5014019;28;20033;-76
2022/11/21 05:34:38;;;;;;;12.02;4.20;;;;;;;;;;5014321;28;20554;-76
2022/11/21 05:37:04;;;;;;;9.57;3.85;;;;;;;;;;5011949;28;20460;-75
2022/11/21 05:39:31;;;;;;;34.25;6.10;;;;;;;;;;5004883;28;20038;-76
2022/11/21 05:41:56;;;;;;;25.30;5.45;;;;;;;;;;5012749;28;20087;-76
2022/11/21 05:44:22;;;;;;;31.95;5.93;;;;;;;;;;5014612;28;20044;-76
2022/11/21 05:46:48;;;;;;;19.75;5.15;;;;;;;;;;5014294;28;20038;-77
2022/11/21 05:49:14;;;;;;;15.73;4.35;;;;;;;;;;4995708;28;20420;-76
2022/11/21 05:51:40;;;;;;;21.20;4.38;;;;;;;;;;5013447;28;20120;-76
2022/11/21 05:54:06;;;;;;;8.50;3.50;;;;;;;;;;5014205;28;20021;-76
2022/11/21 05:56:32;;;;;;;14.85;4.15;;;;;;;;;;5014119;28;20368;-76
2022/11/21 05:58:58;;;;;;;17.98;6.53;;;;;;;;;;5013390;28;20060;-76
2022/11/21 06:04:09;;;;;;;24.63;5.28;;;;;;;;;;5006257;28;20080;-75
2022/11/21 06:06:36;;;;;;;12.85;4.85;;;;;;;;;;5012803;28;20049;-75
2022/11/21 06:09:03;;;;;;;9.70;3.97;;;;;;;;;;5013041;28;20045;-76
2022/11/21 06:11:29;;;;;;;23.15;5.20;;;;;;;;;;5013124;28;20030;-76
2022/11/21 06:13:55;;;;;;;49.88;5.88;;;;;;;;;;5013485;28;20121;-75
2022/11/21 06:16:21;;;;;;;22.52;6.55;;;;;;;;;;5011953;28;20057;-75
2022/11/21 06:18:51;;;;;;;25.10;6.22;;;;;;;;;;5012889;28;20025;-76
2022/11/21 06:21:19;;;;;;;32.35;7.43;;;;;;;;;;5013381;28;20034;-72
2022/11/21 06:23:46;;;;;;;12.57;4.60;;;;;;;;;;5013955;28;20495;-77
2022/11/21 06:26:15;;;;;;;25.73;5.03;;;;;;;;;;5013068;28;20038;-76
2022/11/21 06:28:41;;;;;;;15.60;4.45;;;;;;;;;;5012767;28;20033;-76
2022/11/21 06:31:13;;;;;;;10.68;4.20;;;;;;;;;;4994648;28;20112;-77
2022/11/21 06:33:39;;;;;;;14.88;5.07;;;;;;;;;;5012085;28;20144;-75
2022/11/21 06:36:26;;;;;;;9.55;4.72;;;;;;;;;;5012722;28;20487;-76
2022/11/21 06:38:53;;;;;;;11.18;4.75;;;;;;;;;;5011579;28;20365;-77
2022/11/21 06:41:21;;;;;;;28.38;5.80;;;;;;;;;;5011102;28;20025;-76
2022/11/21 06:43:47;;;;;;;31.85;8.77;;;;;;;;;;5011820;28;20029;-75
2022/11/21 06:46:14;;;;;;;30.45;7.38;;;;;;;;;;5008746;28;20108;-75
2022/11/21 06:48:41;;;;;;;14.15;5.88;;;;;;;;;;5009261;28;20026;-75
2022/11/21 06:51:18;;;;;;;12.55;4.63;;;;;;;;;;5011469;28;20491;-74
2022/11/21 06:53:44;;;;;;;11.30;4.13;;;;;;;;;;4991653;28;20038;-74
2022/11/21 06:56:10;;;;;;;14.48;4.30;;;;;;;;;;5008111;28;20029;-75
2022/11/21 06:58:36;;;;;;;16.42;4.38;;;;;;;;;;5010313;28;20386;-75
2022/11/21 07:01:09;;;;;;;8.85;4.03;;;;;;;;;;5010610;28;20022;-76
2022/11/21 07:03:36;;;;;;;25.40;4.40;;;;;;;;;;5007977;28;20109;-76
2022/11/21 07:06:03;;;;;;;31.77;8.50;;;;;;;;;;5010723;28;20103;-74
2022/11/21 07:08:32;;;;;;;26.02;6.63;;;;;;;;;;5009612;28;20033;-76
2022/11/21 07:11:09;;;;;;;20.08;5.80;;;;;;;;;;5009549;28;20049;-75
2022/11/21 07:13:35;;;;;;;26.45;7.93;;;;;;;;;;5008195;28;20038;-75
2022/11/21 07:16:06;;;;;;;33.78;6.90;;;;;;;;;;5012129;28;20025;-74
2022/11/21 07:18:33;;;;;;;13.90;4.85;;;;;;;;;;5011997;28;20030;-75
2022/11/21 07:21:00;;;;;;;10.77;4.03;;;;;;;;;;5011377;28;20029;-75
2022/11/21 07:23:27;;;;;;;14.50;4.25;;;;;;;;;;5012102;28;20041;-75
2022/11/21 07:25:53;;;;;;;16.05;3.88;;;;;;;;;;5007559;28;20188;-75
2022/11/21 07:28:19;;;;;;;16.92;4.90;;;;;;;;;;5004253;28;20029;-75
2022/11/21 07:30:45;;;;;;;24.40;5.72;;;;;;;;;;5011698;28;20494;-75
2022/11/21 07:33:11;;;;;;;33.83;6.55;;;;;;;;;;5011674;28;20041;-75
2022/11/21 07:35:38;;;;;;;34.75;6.78;;;;;;;;;;5009406;28;20022;-76
2022/11/21 07:38:04;;;;;;;11.13;3.75;;;;;;;;;;5010711;28;20032;-77
2022/11/21 07:40:33;;;;;;;18.05;4.28;;;;;;;;;;5011262;28;20029;-76
2022/11/21 07:43:01;;;;;;;15.93;4.32;;;;;;;;;;5011536;28;20118;-75
2022/11/21 07:45:27;;;;;;;19.15;4.43;;;;;;;;;;5010901;28;20041;-75
2022/11/21 07:48:00;;;;;;;11.45;3.20;;;;;;;;;;5010302;28;20152;-75
2022/11/21 07:50:27;;;;;;;13.63;4.50;;;;;;;;;;5011514;28;20042;-77
2022/11/21 07:53:04;;;;;;;12.68;3.78;;;;;;;;;;5011635;28;20037;-75
2022/11/21 07:55:31;;;;;;;23.73;5.05;;;;;;;;;;5011782;28;20056;-75
2022/11/21 07:58:11;;;;;;;19.10;4.90;;;;;;;;;;5011455;28;20109;-78
2022/11/21 08:00:41;;;;;;;8.20;3.00;;;;;;;;;;5011610;28;20046;-77
2022/11/21 08:03:07;;;;;;;8.73;3.40;;;;;;;;;;5028770;28;20587;-78
2022/11/21 08:05:37;;;;;;;13.52;3.78;;;;;;;;;;5016005;28;20064;-79
2022/11/21 08:08:05;;;;;;;10.35;3.80;;;;;;;;;;5016037;28;20098;-77
2022/11/21 08:10:31;;;;;;;14.15;4.53;;;;;;;;;;5015176;28;20026;-78
2022/11/21 08:12:57;;;;;;;12.07;4.03;;;;;;;;;;5018086;28;20476;-79
2022/11/21 08:15:23;;;;;;;9.95;4.05;;;;;;;;;;5017191;28;20072;-77
2022/11/21 08:17:49;;;;;;;10.90;4.28;;;;;;;;;;5018509;28;20053;-78
2022/11/21 08:20:16;;;;;;;10.10;3.95;;;;;;;;;;5016976;28;20337;-76
2022/11/21 08:22:43;;;;;;;12.20;4.45;;;;;;;;;;5014961;28;20073;-75
2022/11/21 08:25:11;;;;;;;9.90;3.78;;;;;;;;;;5015778;28;20135;-76
2022/11/21 08:27:38;;;;;;;8.13;3.20;;;;;;;;;;5015553;28;20125;-77
2022/11/21 08:30:08;;;;;;;6.53;3.08;;;;;;;;;;5015468;28;20072;-77
2022/11/21 08:32:34;;;;;;;8.25;3.05;;;;;;;;;;5014007;28;20049;-76
2022/11/21 08:35:00;;;;;;;6.85;2.88;;;;;;;;;;5015156;28;20021;-77
2022/11/21 08:37:28;;;;;;;7.93;2.58;;;;;;;;;;5015168;28;20029;-73
2022/11/21 08:39:54;;;;;;;9.35;2.40;;;;;;;;;;5014778;28;20030;-76
2022/11/21 08:42:20;;;;;;;6.95;2.08;;;;;;;;;;5014908;28;20084;-77
2022/11/21 08:44:46;;;;;;;3.75;1.55;;;;;;;;;;5014649;28;20025;-74
2022/11/21 08:47:12;;;;;;;4.72;1.55;;;;;;;;;;5014350;28;20393;-76
2022/11/21 08:49:39;;;;;;;8.82;2.47;;;;;;;;;;5014623;28;20081;-75
2022/11/21 08:52:05;;;;;;;10.57;3.15;;;;;;;;;;5014461;28;20124;-76
2022/11/21 08:54:31;;;;;;;3.80;1.70;;;;;;;;;;5014641;28;20109;-76
2022/11/21 08:56:57;;;;;;;7.20;1.98;;;;;;;;;;5014490;28;20111;-76
2022/11/21 08:59:23;;;;;;;8.13;2.38;;;;;;;;;;5014033;28;20026;-76
2022/11/21 09:01:49;;;;;;;7.93;2.80;;;;;;;;;;5014733;28;20042;-75
2022/11/21 09:04:15;;;;;;;7.35;3.00;;;;;;;;;;5014456;28;20018;-76
2022/11/21 09:06:41;;;;;;;3.97;1.55;;;;;;;;;;5014780;28;20125;-76
2022/11/21 09:09:07;;;;;;;10.50;2.03;;;;;;;;;;5014156;28;20483;-75
2022/11/21 09:11:33;;;;;;;6.28;1.90;;;;;;;;;;5013793;28;20045;-76
2022/11/21 09:19:28;;;;;;;5.35;2.20;;;;;;;;;;5014412;28;20081;-74
2022/11/21 09:21:53;;;;;;;5.55;2.78;;;;;;;;;;5014269;28;20054;-75
2022/11/21 09:24:19;;;;;;;4.95;1.70;;;;;;;;;;5014267;28;20026;-74
2022/11/21 09:26:45;;;;;;;9.20;2.03;;;;;;;;;;5014090;28;20529;-75
2022/11/21 09:29:13;;;;;;;9.60;2.42;;;;;;;;;;5014585;28;20052;-76
2022/11/21 09:31:42;;;;;;;7.00;3.92;;;;;;;;;;5015533;28;20026;-76
2022/11/21 09:34:09;;;;;;;4.05;1.30;;;;;;;;;;5013461;28;20121;-75
2022/11/21 09:36:36;;;;;;;5.18;1.55;;;;;;;;;;5014745;28;20105;-77
2022/11/21 09:39:02;;;;;;;5.15;1.95;;;;;;;;;;5014087;28;20070;-74
2022/11/21 09:41:52;;;;;;;6.38;1.58;;;;;;;;;;5013395;28;20026;-73
2022/11/21 09:44:37;;;;;;;3.38;1.88;;;;;;;;;;5012327;28;20037;-73
2022/11/21 09:47:27;;;;;;;3.15;1.25;;;;;;;;;;5013177;28;20038;-74
2022/11/21 09:50:20;;;;;;;4.30;1.17;;;;;;;;;;5010652;28;20041;-74
2022/11/21 09:53:11;;;;;;;6.68;1.70;;;;;;;;;;5004932;28;20038;-77
2022/11/21 09:55:50;;;;;;;3.15;1.63;;;;;;;;;;4993957;28;20030;-76
2022/11/21 09:58:37;;;;;;;10.38;2.17;;;;;;;;;;4993766;28;20065;-77
2022/11/21 10:01:03;;;;;;;3.88;1.55;;;;;;;;;;4993352;28;20045;-76
2022/11/21 10:03:34;;;;;;;8.40;1.45;;;;;;;;;;4993759;28;20022;-77
2022/11/21 10:06:09;;;;;;;2.47;1.40;;;;;;;;;;4993847;28;20089;-76
2022/11/21 10:08:54;;;;;;;6.35;1.65;;;;;;;;;;4993717;28;20042;-76
2022/11/21 10:11:32;;;;;;;7.38;2.20;;;;;;;;;;4991991;28;20076;-77
2022/11/21 10:14:19;;;;;;;4.25;1.50;;;;;;;;;;4993272;28;20492;-76
2022/11/21 10:17:01;;;;;;;4.78;1.80;;;;;;;;;;4992080;28;20038;-77
2022/11/21 10:20:08;;;;;;;3.47;1.45;;;;;;;;;;4992688;28;20037;-76
2022/11/21 10:23:25;;;;;;;2.17;1.48;;;;;;;;;;4990099;28;20169;-77
2022/11/21 10:26:13;;;;;;;2.03;1.10;;;;;;;;;;4958273;28;20378;-76
2022/11/21 10:29:03;;;;;;;2.78;1.40;;;;;;;;;;4993907;28;20058;-76
2022/11/21 10:31:36;;;;;;;5.90;1.77;;;;;;;;;;4991671;28;20045;-76
2022/11/21 10:34:09;;;;;;;5.38;1.80;;;;;;;;;;4992932;28;20061;-76
2022/11/21 10:36:40;;;;;;;2.63;1.50;;;;;;;;;;4993389;28;20109;-76
2022/11/21 10:39:22;;;;;;;4.78;1.67;;;;;;;;;;4993087;28;20034;-76
2022/11/21 10:42:03;;;;;;;3.55;1.40;;;;;;;;;;4993135;28;20034;-76
2022/11/21 10:47:28;;;;;;;9.75;2.67;;;;;;;;;;4992366;28;20382;-76
2022/11/21 10:50:23;;;;;;;4.53;2.10;;;;;;;;;;4992659;28;20038;-76
2022/11/21 10:53:01;;;;;;;2.47;1.45;;;;;;;;;;4986454;28;20054;-75
2022/11/21 10:55:27;;;;;;;5.63;1.85;;;;;;;;;;4993372;28;20122;-76
2022/11/21 10:57:54;;;;;;;5.13;2.10;;;;;;;;;;4992960;28;20480;-76
2022/11/21 11:00:25;;;;;;;3.33;1.58;;;;;;;;;;4991631;28;20038;-75
2022/11/21 11:02:54;;;;;;;6.13;2.10;;;;;;;;;;4992405;28;20065;-75
2022/11/21 11:05:23;;;;;;;4.20;1.58;;;;;;;;;;4992708;28;20109;-75
2022/11/21 11:08:11;;;;;;;7.88;2.38;;;;;;;;;;4991110;28;20038;-75
2022/11/21 11:10:42;;;;;;;2.50;1.30;;;;;;;;;;4991411;28;20107;-74
2022/11/21 11:16:14;;;;;;;7.80;2.70;;;;;;;;;;4992478;28;20038;-76
2022/11/21 11:18:45;;;;;;;4.93;1.95;;;;;;;;;;4992726;28;20038;-76
2022/11/21 11:21:22;;;;;;;3.00;1.77;;;;;;;;;;4992321;28;20420;-76
2022/11/21 11:23:49;;;;;;;5.10;2.05;;;;;;;;;;4992365;28;20038;-76
2022/11/21 11:26:21;;;;;;;5.90;2.40;;;;;;;;;;4992861;28;20030;-73
2022/11/21 11:28:47;;;;;;;5.28;2.35;;;;;;;;;;4992454;28;20101;-73
2022/11/21 11:31:13;;;;;;;4.82;1.95;;;;;;;;;;4992238;28;20022;-74
2022/11/21 11:33:48;;;;;;;5.97;1.95;;;;;;;;;;4992103;28;20489;-74
2022/11/21 11:36:14;;;;;;;6.40;2.80;;;;;;;;;;4992610;28;20515;-73
2022/11/21 11:38:56;;;;;;;5.13;2.40;;;;;;;;;;4995690;28;20022;-73
2022/11/21 11:48:09;;;;;;;7.70;3.28;;;;;;;;;;4996188;28;20092;-77
2022/11/21 11:51:00;;;;;;;8.90;2.20;;;;;;;;;;4996215;28;20042;-76
2022/11/21 11:53:52;;;;;;;7.97;2.85;;;;;;;;;;4996509;28;20117;-75
2022/11/21 11:56:27;;;;;;;7.68;2.45;;;;;;;;;;4978815;28;20038;-74
2022/11/21 11:58:56;;;;;;;5.07;1.90;;;;;;;;;;4996315;28;20046;-74
2022/11/21 12:01:30;;;;;;;4.43;2.20;;;;;;;;;;4995536;28;20026;-76
2022/11/21 12:04:12;;;;;;;9.25;2.60;;;;;;;;;;4995848;28;20390;-76
2022/11/21 12:07:02;;;;;;;7.38;2.47;;;;;;;;;;5008650;28;20099;-74
2022/11/21 12:09:34;;;;;;;6.95;2.00;;;;;;;;;;5015358;28;20117;-75
2022/11/21 12:12:10;;;;;;;6.95;1.73;;;;;;;;;;5016241;28;20034;-77
2022/11/21 12:18:06;;;;;;;6.55;2.75;;;;;;;;;;5016096;28;20367;-74
2022/11/21 12:20:47;;;;;;;4.95;2.10;;;;;;;;;;5016056;28;20223;-75
2022/11/21 12:23:14;;;;;;;5.50;2.22;;;;;;;;;;5013908;28;20145;-73
2022/11/21 12:25:50;;;;;;;7.10;2.83;;;;;;;;;;5015232;28;20037;-76
2022/11/21 12:28:29;;;;;;;8.57;2.45;;;;;;;;;;5015621;28;20044;-74
2022/11/21 12:31:05;;;;;;;4.18;1.40;;;;;;;;;;5015530;28;20491;-77
2022/11/21 12:33:36;;;;;;;3.03;1.48;;;;;;;;;;5015137;28;20120;-76
2022/11/21 12:36:12;;;;;;;9.70;2.00;;;;;;;;;;5014726;28;20034;-75
2022/11/21 12:38:47;;;;;;;3.38;1.50;;;;;;;;;;5014504;28;20369;-74
2022/11/21 12:44:47;;;;;;;4.68;1.45;;;;;;;;;;5015256;28;20030;-74
2022/11/21 12:47:25;;;;;;;3.58;1.60;;;;;;;;;;5013424;28;20038;-75
2022/11/21 12:55:44;;;;;;;6.20;1.63;;;;;;;;;;5014586;28;20491;-74
2022/11/21 12:58:28;;;;;;;2.85;1.30;;;;;;;;;;5013649;28;20101;-74
2022/11/21 13:01:18;;;;;;;8.23;2.35;;;;;;;;;;5011901;28;20079;-76
2022/11/21 13:04:02;;;;;;;4.40;1.40;;;;;;;;;;5012719;28;20034;-74
2022/11/21 13:06:33;;;;;;;5.05;1.95;;;;;;;;;;5014104;28;20062;-75
2022/11/21 13:09:01;;;;;;;6.80;1.70;;;;;;;;;;5012274;28;20038;-73
2022/11/21 13:14:35;;;;;;;4.90;1.50;;;;;;;;;;5012789;28;20034;-74
2022/11/21 13:17:18;;;;;;;3.85;1.80;;;;;;;;;;5014257;28;20108;-74
2022/11/21 13:19:57;;;;;;;;;;;;;;;;;;5007438;28;20046;-75
2022/11/21 13:22:35;;;;;;;2.85;1.63;;;;;;;;;;4994397;28;20033;-75
2022/11/21 13:25:37;;;;;;;2.88;1.40;;;;;;;;;;5002048;28;20053;-75
2022/11/21 13:28:21;;;;;;;5.20;1.60;;;;;;;;;;5014064;28;20041;-75
2022/11/21 13:30:56;;;;;;;4.15;1.42;;;;;;;;;;5014256;28;20091;-75
2022/11/21 13:33:34;;;;;;;6.38;2.08;;;;;;;;;;4999222;28;20046;-73
2022/11/21 13:36:22;;;;;;;6.32;2.03;;;;;;;;;;4993940;28;20053;-76
2022/11/21 13:38:51;;;;;;;6.05;1.73;;;;;;;;;;5010241;28;20069;-76
2022/11/21 13:44:31;;;;;;;7.75;2.22;;;;;;;;;;5011790;28;20052;-76
2022/11/21 13:47:22;;;;;;;7.75;1.75;;;;;;;;;;5013436;28;20045;-74
2022/11/21 13:50:00;;;;;;;4.07;1.80;;;;;;;;;;5013336;28;20064;-73
2022/11/21 13:52:32;;;;;;;5.60;1.90;;;;;;;;;;5013672;28;20037;-74
2022/11/21 13:55:10;;;;;;;14.30;2.20;;;;;;;;;;5011479;28;20030;-74
2022/11/21 13:57:41;;;;;;;6.40;1.98;;;;;;;;;;5012155;28;20045;-74
2022/11/21 14:00:28;;;;;;;5.70;1.60;;;;;;;;;;5012718;28;20485;-75
2022/11/21 14:03:04;;;;;;;4.57;1.88;;;;;;;;;;5007146;28;20034;-75
2022/11/21 14:06:33;;;;;;;2.78;1.60;;;;;;;;;;4993935;28;20030;-76
2022/11/21 14:09:13;;;;;;;7.90;2.60;;;;;;;;;;4991313;28;20440;-75
2022/11/21 14:11:49;;;;;;;7.72;2.35;;;;;;;;;;5011538;28;20048;-75
2022/11/21 14:14:30;;;;;;;11.55;2.60;;;;;;;;;;5012855;28;20047;-74
2022/11/21 14:17:18;;;;;;;6.85;2.63;;;;;;;;;;5011049;28;20121;-74
2022/11/21 14:19:44;;;;;;;6.18;2.35;;;;;;;;;;5012684;28;20045;-73
2022/11/21 14:22:33;;;;;;;4.88;1.90;;;;;;;;;;5003698;28;20471;-73
2022/11/21 14:25:00;;;;;;;5.50;2.00;;;;;;;;;;5013005;28;20042;-75
2022/11/21 14:27:30;;;;;;;7.07;1.55;;;;;;;;;;5012798;28;20036;-74
2022/11/21 14:29:57;;;;;;;3.95;1.60;;;;;;;;;;5012240;28;20076;-74
2022/11/21 14:32:29;;;;;;;3.67;1.73;;;;;;;;;;5013176;28;20048;-74
2022/11/21 14:35:10;;;;;;;4.55;1.50;;;;;;;;;;5013343;28;20030;-74
2022/11/21 14:37:41;;;;;;;5.57;2.13;;;;;;;;;;5011082;28;20456;-74
2022/11/21 14:40:12;;;;;;;6.85;1.90;;;;;;;;;;5012740;28;20507;-73
2022/11/21 14:42:38;;;;;;;7.82;2.08;;;;;;;;;;4992771;28;20061;-73
2022/11/21 14:45:18;;;;;;;4.47;1.83;;;;;;;;;;4997310;28;20022;-73
2022/11/21 14:47:49;;;;;;;5.63;1.70;;;;;;;;;;5012943;28;20076;-73
2022/11/21 14:50:28;;;;;;;4.95;1.75;;;;;;;;;;4994046;28;20037;-73
2022/11/21 14:52:58;;;;;;;5.53;1.77;;;;;;;;;;4993349;28;20117;-73
2022/11/21 14:55:30;;;;;;;6.72;1.67;;;;;;;;;;4992929;28;20053;-73
2022/11/21 14:57:59;;;;;;;5.65;2.00;;;;;;;;;;4994184;28;20030;-79
2022/11/21 15:00:27;;;;;;;8.18;1.70;;;;;;;;;;5010094;28;20070;-74
2022/11/21 15:02:56;;;;;;;3.47;1.88;;;;;;;;;;5011190;28;20038;-74
2022/11/21 15:05:29;;;;;;;10.68;2.08;;;;;;;;;;5011958;28;20439;-74
2022/11/21 15:07:58;;;;;;;4.82;1.73;;;;;;;;;;5010750;28;20045;-75
2022/11/21 15:10:32;;;;;;;3.90;1.58;;;;;;;;;;5011983;28;20105;-74
2022/11/21 15:13:03;;;;;;;2.97;1.50;;;;;;;;;;5010618;28;20388;-74
2022/11/21 15:15:39;;;;;;;6.38;1.83;;;;;;;;;;5010671;28;20052;-74
2022/11/21 15:18:21;;;;;;;6.00;2.03;;;;;;;;;;5011157;28;20026;-75
2022/11/21 15:20:50;;;;;;;3.35;1.52;;;;;;;;;;4993822;28;20041;-73
2022/11/21 15:23:37;;;;;;;6.00;2.15;;;;;;;;;;5010673;28;20435;-74
2022/11/21 15:26:03;;;;;;;7.05;2.60;;;;;;;;;;5010124;28;20029;-75
2022/11/21 15:28:29;;;;;;;3.92;2.20;;;;;;;;;;5009926;28;20026;-75
2022/11/21 15:31:17;;;;;;;7.35;2.40;;;;;;;;;;5010716;28;20036;-76
2022/11/21 15:34:03;;;;;;;5.18;1.90;;;;;;;;;;5009885;28;20049;-76
2022/11/21 15:36:31;;;;;;;6.30;1.90;;;;;;;;;;5010783;28;20026;-77
2022/11/21 15:39:00;;;;;;;4.53;2.30;;;;;;;;;;5008041;28;20072;-75
2022/11/21 15:41:34;;;;;;;5.97;2.67;;;;;;;;;;5011978;28;20167;-75
2022/11/21 15:44:00;;;;;;;4.20;2.00;;;;;;;;;;5009537;28;20087;-74